Time;durP1;ratioP1;P1;durP2;ratioP2;P2;SDS_P1;SDS_P2;PMS_P1;PMS_P2;Temp;Humidity;BMP_temperature;BMP_pressure;BME280_temperature;BME280_humidity;BME280_pressure;Samples;Min_cycle;Max_cycle;Signal;HPM_P1;HPM_P2
2023/04/25 00:00:30;;;;;;;7.57;5.32;;;9.10;99.90;;;;;;5073896;28;20023;-58
2023/04/25 00:02:56;;;;;;;5.80;5.07;;;9.10;99.90;;;;;;5073873;28;20517;-55
2023/04/25 00:05:22;;;;;;;5.85;5.22;;;9.10;99.90;;;;;;5073538;28;20029;-52
2023/04/25 00:07:49;;;;;;;7.47;6.28;;;9.00;99.90;;;;;;5073825;28;20029;-56
2023/04/25 00:10:15;;;;;;;7.88;6.60;;;9.00;99.90;;;;;;5073836;28;20112;-51
2023/04/25 00:12:41;;;;;;;6.95;6.05;;;9.00;99.90;;;;;;5073694;28;20037;-53
2023/04/25 00:15:07;;;;;;;6.10;5.50;;;9.00;99.90;;;;;;5073435;28;20500;-56
2023/04/25 00:17:34;;;;;;;6.63;5.35;;;9.00;99.90;;;;;;5073983;28;20120;-54
2023/04/25 00:20:00;;;;;;;7.32;5.75;;;9.00;99.90;;;;;;5055314;28;20039;-52
2023/04/25 00:22:26;;;;;;;6.78;6.00;;;9.00;99.90;;;;;;5055411;28;20047;-51
2023/04/25 00:24:53;;;;;;;6.15;5.55;;;9.00;99.90;;;;;;5073293;28;20028;-51
2023/04/25 00:27:18;;;;;;;6.95;5.80;;;9.00;99.90;;;;;;5073379;28;20108;-53
2023/04/25 00:29:44;;;;;;;7.57;6.68;;;9.00;99.90;;;;;;5073079;28;20103;-52
2023/04/25 00:32:10;;;;;;;9.90;6.25;;;9.00;99.90;;;;;;5073281;28;20093;-55
2023/04/25 00:34:35;;;;;;;7.75;6.53;;;9.00;99.90;;;;;;5054716;28;20453;-54
2023/04/25 00:37:02;;;;;;;9.63;6.15;;;9.10;99.90;;;;;;5073144;28;20024;-57
2023/04/25 00:39:27;;;;;;;7.97;6.13;;;9.10;99.90;;;;;;5072910;28;20016;-56
2023/04/25 00:41:54;;;;;;;7.68;6.18;;;9.10;99.90;;;;;;5054693;28;20395;-50
2023/04/25 00:44:20;;;;;;;6.43;5.82;;;9.10;99.90;;;;;;5072757;28;20078;-50
2023/04/25 00:46:48;;;;;;;6.72;6.03;;;9.00;99.90;;;;;;5072853;28;20033;-55
2023/04/25 00:49:16;;;;;;;6.93;6.03;;;9.00;99.90;;;;;;5054857;28;20031;-54
2023/04/25 00:51:44;;;;;;;6.38;5.78;;;9.00;99.90;;;;;;5072890;28;20048;-57
2023/04/25 00:54:13;;;;;;;6.40;5.82;;;9.00;99.90;;;;;;5072666;28;20510;-58
2023/04/25 00:56:39;;;;;;;6.55;5.88;;;9.00;99.90;;;;;;5072603;28;20032;-54
2023/04/25 00:59:05;;;;;;;6.88;5.45;;;9.00;99.90;;;;;;5072476;28;20025;-54
2023/04/25 01:01:31;;;;;;;7.00;5.85;;;9.00;99.90;;;;;;5072668;28;20552;-53
2023/04/25 01:03:59;;;;;;;7.05;5.10;;;9.00;99.90;;;;;;5072535;28;20032;-51
2023/04/25 01:06:24;;;;;;;6.85;6.15;;;9.00;99.90;;;;;;5053313;28;20032;-55
2023/04/25 01:08:51;;;;;;;9.13;5.95;;;9.00;99.90;;;;;;5072461;28;20142;-56
2023/04/25 01:11:17;;;;;;;6.03;5.45;;;8.90;99.90;;;;;;5072296;28;20035;-55
2023/04/25 01:13:43;;;;;;;6.97;6.25;;;8.90;99.90;;;;;;5072197;28;20028;-53
2023/04/25 01:16:08;;;;;;;5.93;5.32;;;8.90;99.90;;;;;;5072082;28;20028;-55
2023/04/25 01:18:34;;;;;;;8.07;5.57;;;8.80;99.90;;;;;;5072272;28;20074;-55
2023/04/25 01:21:08;;;;;;;6.30;5.70;;;8.80;99.90;;;;;;5072092;28;20047;-53
2023/04/25 01:23:34;;;;;;;7.25;5.35;;;8.90;99.90;;;;;;5072238;28;20078;-56
2023/04/25 01:26:00;;;;;;;7.43;5.82;;;8.90;99.90;;;;;;5053935;28;20512;-56
2023/04/25 01:28:27;;;;;;;6.40;5.80;;;8.90;99.90;;;;;;5072039;28;20108;-53
2023/04/25 01:30:53;;;;;;;6.60;5.53;;;8.90;99.90;;;;;;5071656;28;20028;-51
2023/04/25 01:33:20;;;;;;;6.88;6.28;;;8.90;99.90;;;;;;5071853;28;20090;-52
2023/04/25 01:35:47;;;;;;;6.82;5.50;;;8.90;99.90;;;;;;5072094;28;20104;-50
2023/04/25 01:41:34;;;;;;;5.57;5.10;;;8.90;99.90;;;;;;5070892;28;20023;-58
2023/04/25 01:44:00;;;;;;;6.55;5.55;;;8.90;99.90;;;;;;5071743;28;20407;-57
2023/04/25 01:46:25;;;;;;;7.93;6.35;;;8.80;99.90;;;;;;5071597;28;20041;-58
2023/04/25 01:48:51;;;;;;;9.13;5.45;;;8.80;99.90;;;;;;5071618;28;20476;-55
2023/04/25 01:51:17;;;;;;;7.35;6.65;;;8.70;99.90;;;;;;5071552;28;20507;-54
2023/04/25 01:53:43;;;;;;;9.43;6.43;;;8.70;99.90;;;;;;5071581;28;20485;-55
2023/04/25 01:56:08;;;;;;;7.15;6.35;;;8.70;99.90;;;;;;5071424;28;20031;-54
2023/04/25 01:58:34;;;;;;;9.40;6.35;;;8.70;99.90;;;;;;5071644;28;20020;-55
2023/04/25 02:00:59;;;;;;;9.15;6.10;;;8.70;99.90;;;;;;5071461;28;20052;-54
2023/04/25 02:03:25;;;;;;;6.65;5.80;;;8.70;99.90;;;;;;5071384;28;20028;-55
2023/04/25 02:05:51;;;;;;;7.53;6.72;;;8.70;99.90;;;;;;5071248;28;20377;-53
2023/04/25 02:08:17;;;;;;;6.60;5.80;;;8.70;99.90;;;;;;5071447;28;20047;-53
2023/04/25 02:10:43;;;;;;;7.00;6.28;;;8.70;99.90;;;;;;5071286;28;20017;-58
2023/04/25 02:13:08;;;;;;;7.13;6.25;;;8.70;99.90;;;;;;5071354;28;20032;-56
2023/04/25 02:15:34;;;;;;;8.65;7.53;;;8.70;99.90;;;;;;5053231;28;20567;-55
2023/04/25 02:18:00;;;;;;;7.68;6.85;;;8.70;99.90;;;;;;5070924;28;20484;-56
2023/04/25 02:20:26;;;;;;;6.80;6.10;;;8.70;99.90;;;;;;5071285;28;20400;-50
2023/04/25 02:22:52;;;;;;;6.47;5.65;;;8.70;99.90;;;;;;5071284;28;20021;-54
2023/04/25 02:25:19;;;;;;;5.88;5.38;;;8.70;99.90;;;;;;5071026;28;20094;-56
2023/04/25 02:27:45;;;;;;;7.32;6.25;;;8.60;99.90;;;;;;5071268;28;20023;-54
2023/04/25 02:30:11;;;;;;;6.63;6.03;;;8.60;99.90;;;;;;5071136;28;20025;-56
2023/04/25 02:32:37;;;;;;;6.10;5.50;;;8.60;99.90;;;;;;5071139;28;20027;-53
2023/04/25 02:35:03;;;;;;;7.00;6.30;;;8.70;99.90;;;;;;5070786;28;20025;-54
2023/04/25 02:37:36;;;;;;;7.15;6.50;;;8.70;99.90;;;;;;5071088;28;20017;-55
2023/04/25 02:40:03;;;;;;;6.97;6.38;;;8.80;99.90;;;;;;5071170;28;20124;-50
2023/04/25 02:42:29;;;;;;;9.45;6.35;;;8.90;99.90;;;;;;5070740;28;20380;-51
2023/04/25 02:44:55;;;;;;;6.72;6.03;;;8.90;99.90;;;;;;5070816;28;20048;-54
2023/04/25 02:47:21;;;;;;;6.75;6.05;;;8.80;99.90;;;;;;5071132;28;20495;-50
2023/04/25 02:49:47;;;;;;;7.70;6.40;;;8.80;99.90;;;;;;5071244;28;20031;-53
2023/04/25 02:52:12;;;;;;;7.85;6.85;;;8.80;99.90;;;;;;5071010;28;20028;-57
2023/04/25 02:54:40;;;;;;;6.50;5.90;;;8.70;99.90;;;;;;5070666;28;20050;-55
2023/04/25 02:57:05;;;;;;;8.05;6.97;;;8.60;99.90;;;;;;5070798;28;20032;-54
2023/04/25 02:59:31;;;;;;;8.18;6.80;;;8.60;99.90;;;;;;5070777;28;20020;-53
2023/04/25 03:01:56;;;;;;;7.95;7.07;;;8.60;99.90;;;;;;5070859;28;20082;-58
2023/04/25 03:04:23;;;;;;;8.15;6.47;;;8.60;99.90;;;;;;5070681;28;20041;-51
2023/04/25 03:06:49;;;;;;;7.13;6.50;;;8.50;99.90;;;;;;5052912;28;20403;-56
2023/04/25 03:09:15;;;;;;;9.40;7.35;;;8.60;99.90;;;;;;5070671;28;20052;-53
2023/04/25 03:11:40;;;;;;;9.82;7.45;;;8.50;99.90;;;;;;5070724;28;20484;-55
2023/04/25 03:14:06;;;;;;;8.88;7.13;;;8.50;99.90;;;;;;5070586;28;20029;-56
2023/04/25 03:16:31;;;;;;;9.15;7.18;;;8.50;99.90;;;;;;5070740;28;20032;-54
2023/04/25 03:18:57;;;;;;;7.57;6.82;;;8.50;99.90;;;;;;5070804;28;20073;-56
2023/04/25 03:21:23;;;;;;;9.30;8.15;;;8.50;99.90;;;;;;5070616;28;20036;-52
2023/04/25 03:23:48;;;;;;;8.55;6.97;;;8.50;99.90;;;;;;5070722;28;20542;-56
2023/04/25 03:26:14;;;;;;;8.05;7.05;;;8.50;99.90;;;;;;5070339;28;20032;-54
2023/04/25 03:28:40;;;;;;;9.23;7.38;;;8.50;99.90;;;;;;5070246;28;20025;-55
2023/04/25 03:31:05;;;;;;;9.13;7.20;;;8.50;99.90;;;;;;5074178;28;20035;-54
2023/04/25 03:33:31;;;;;;;7.85;7.05;;;8.50;99.90;;;;;;5074217;28;20496;-56
2023/04/25 03:35:56;;;;;;;8.40;7.55;;;8.50;99.90;;;;;;5074068;28;20396;-56
2023/04/25 03:38:22;;;;;;;9.90;7.82;;;8.50;99.90;;;;;;5056345;28;20023;-58
2023/04/25 03:40:47;;;;;;;10.57;8.05;;;8.60;99.90;;;;;;5073885;28;20519;-55
2023/04/25 03:43:13;;;;;;;7.72;6.93;;;8.60;99.90;;;;;;5074048;28;20017;-53
2023/04/25 03:45:38;;;;;;;9.18;7.53;;;8.60;99.90;;;;;;5073819;28;20032;-52
2023/04/25 03:48:04;;;;;;;9.05;7.60;;;8.60;99.90;;;;;;5074067;28;20036;-58
2023/04/25 03:50:30;;;;;;;9.43;7.80;;;8.60;99.90;;;;;;5074076;28;20437;-54
2023/04/25 03:52:55;;;;;;;11.77;8.48;;;8.60;99.90;;;;;;5073876;28;20059;-54
2023/04/25 03:55:21;;;;;;;8.93;7.60;;;8.60;99.90;;;;;;5073621;28;20103;-53
2023/04/25 03:57:46;;;;;;;9.02;8.13;;;8.60;99.90;;;;;;5073867;28;20025;-55
2023/04/25 04:00:13;;;;;;;11.23;8.50;;;8.60;99.90;;;;;;5073863;28;20344;-52
2023/04/25 04:02:38;;;;;;;8.75;7.85;;;8.60;99.90;;;;;;5073901;28;20021;-52
2023/04/25 04:05:05;;;;;;;9.10;8.20;;;8.60;99.90;;;;;;5073546;28;20024;-51
2023/04/25 04:07:32;;;;;;;11.18;7.78;;;8.60;99.90;;;;;;5073566;28;20036;-56
2023/04/25 04:09:58;;;;;;;9.00;8.10;;;8.60;99.90;;;;;;5055577;28;20082;-54
2023/04/25 04:12:24;;;;;;;7.97;7.03;;;8.60;99.90;;;;;;5073561;28;20024;-50
2023/04/25 04:14:49;;;;;;;15.63;8.95;;;8.60;99.90;;;;;;5073408;28;20029;-56
2023/04/25 04:17:15;;;;;;;9.77;8.13;;;8.50;99.90;;;;;;5073965;28;20043;-54
2023/04/25 04:19:40;;;;;;;9.30;7.95;;;8.60;99.90;;;;;;5073948;28;20023;-56
2023/04/25 04:22:06;;;;;;;11.02;7.55;;;8.60;99.90;;;;;;5073457;28;20078;-55
2023/04/25 04:24:32;;;;;;;9.80;8.80;;;8.60;99.90;;;;;;5073231;28;20039;-55
2023/04/25 04:26:58;;;;;;;11.82;8.07;;;8.60;99.90;;;;;;5073368;28;20048;-56
2023/04/25 04:29:24;;;;;;;12.00;8.95;;;8.60;99.90;;;;;;5073368;28;20396;-54
2023/04/25 04:31:52;;;;;;;10.98;9.05;;;8.60;99.90;;;;;;5073335;28;20029;-56
2023/04/25 04:34:18;;;;;;;14.23;10.32;;;8.60;99.90;;;;;;5055079;28;20028;-53
2023/04/25 04:36:45;;;;;;;15.73;10.40;;;8.60;99.90;;;;;;5072993;28;20023;-52
2023/04/25 04:39:11;;;;;;;14.68;9.70;;;8.60;99.90;;;;;;5073107;28;20016;-54
2023/04/25 04:41:37;;;;;;;16.23;10.02;;;8.50;99.90;;;;;;5054770;28;20471;-55
2023/04/25 04:44:02;;;;;;;16.75;8.95;;;8.50;99.90;;;;;;5073215;28;20027;-51
2023/04/25 04:46:28;;;;;;;14.27;8.38;;;8.50;99.90;;;;;;5072801;28;20032;-52
2023/04/25 04:48:54;;;;;;;17.50;9.57;;;8.50;99.90;;;;;;5072929;28;20020;-51
2023/04/25 04:51:20;;;;;;;14.70;7.15;;;8.50;99.90;;;;;;5073090;28;20040;-55
2023/04/25 04:53:46;;;;;;;20.90;6.45;;;8.50;99.90;;;;;;5073113;28;20440;-54
2023/04/25 04:56:11;;;;;;;9.80;6.00;;;8.50;99.90;;;;;;5072553;28;20056;-55
2023/04/25 04:58:37;;;;;;;16.52;6.40;;;8.40;99.90;;;;;;5072813;28;20021;-55
2023/04/25 05:01:02;;;;;;;13.98;6.65;;;8.50;99.90;;;;;;5072558;28;20086;-54
2023/04/25 05:03:28;;;;;;;12.82;6.43;;;8.50;99.90;;;;;;5054695;28;20463;-55
2023/04/25 05:05:54;;;;;;;8.77;6.07;;;8.60;99.90;;;;;;5072399;28;20048;-53
2023/04/25 05:08:19;;;;;;;16.73;6.07;;;8.50;99.90;;;;;;5072579;28;20028;-54
2023/04/25 05:10:45;;;;;;;11.88;6.15;;;8.40;99.90;;;;;;5054461;28;20434;-53
2023/04/25 05:13:10;;;;;;;15.65;6.38;;;8.40;99.90;;;;;;5072542;28;20079;-55
2023/04/25 05:15:36;;;;;;;13.48;7.03;;;8.40;99.90;;;;;;5072169;28;20119;-53
2023/04/25 05:18:02;;;;;;;14.63;7.07;;;8.40;99.90;;;;;;5072281;28;20082;-55
2023/04/25 05:20:27;;;;;;;15.98;6.10;;;8.20;99.90;;;;;;5072180;28;20113;-54
2023/04/25 05:22:53;;;;;;;13.77;6.80;;;8.20;99.90;;;;;;5072305;28;20480;-51
2023/04/25 05:25:18;;;;;;;15.63;8.05;;;8.30;99.90;;;;;;5072156;28;20169;-55
2023/04/25 05:27:44;;;;;;;17.65;7.75;;;8.40;99.90;;;;;;5072672;28;20024;-58
2023/04/25 05:30:10;;;;;;;16.20;8.15;;;8.40;99.90;;;;;;5072112;28;20035;-51
2023/04/25 05:32:35;;;;;;;13.23;7.40;;;8.40;99.90;;;;;;5072194;28;20035;-50
2023/04/25 05:35:01;;;;;;;14.02;6.63;;;8.30;99.90;;;;;;5071592;28;20100;-52
2023/04/25 05:37:27;;;;;;;16.58;7.45;;;8.30;99.90;;;;;;5071759;28;20108;-51
2023/04/25 05:39:53;;;;;;;17.15;7.55;;;8.50;99.90;;;;;;5071979;28;20025;-54
2023/04/25 05:42:18;;;;;;;18.55;8.25;;;8.40;99.90;;;;;;5071519;28;20447;-47
2023/04/25 05:44:47;;;;;;;15.43;8.38;;;8.40;99.90;;;;;;5072258;28;20055;-50
2023/04/25 05:47:13;;;;;;;17.67;8.70;;;8.50;99.90;;;;;;5047957;28;20454;-46
2023/04/25 05:49:38;;;;;;;18.02;8.23;;;8.60;99.90;;;;;;5051704;28;20021;-48
2023/04/25 05:52:04;;;;;;;13.80;7.82;;;8.70;99.90;;;;;;5051316;28;20025;-45
2023/04/25 05:54:29;;;;;;;13.23;7.43;;;8.80;99.90;;;;;;5051854;28;20048;-47
2023/04/25 05:56:57;;;;;;;16.75;8.38;;;9.00;99.90;;;;;;5051693;28;20489;-46
2023/04/25 05:59:22;;;;;;;21.17;8.23;;;9.10;99.90;;;;;;5051914;28;20021;-49
2023/04/25 06:01:48;;;;;;;20.02;8.18;;;9.00;99.90;;;;;;5051666;28;20028;-48
2023/04/25 06:04:13;;;;;;;14.68;7.28;;;9.00;99.90;;;;;;5050602;28;20044;-49
2023/04/25 06:06:39;;;;;;;15.63;6.65;;;8.90;99.90;;;;;;5051465;28;20036;-49
2023/04/25 06:09:04;;;;;;;14.65;7.28;;;8.80;99.90;;;;;;5051782;28;20039;-46
2023/04/25 06:11:30;;;;;;;12.52;6.78;;;8.90;99.90;;;;;;5051388;28;20143;-48
2023/04/25 06:13:55;;;;;;;13.93;7.13;;;8.90;99.90;;;;;;5051580;28;20033;-50
2023/04/25 06:16:21;;;;;;;15.30;6.72;;;8.90;99.90;;;;;;5051267;28;20470;-49
2023/04/25 06:18:46;;;;;;;14.20;6.38;;;9.00;99.90;;;;;;5051792;28;20477;-48
2023/04/25 06:21:12;;;;;;;14.45;6.43;;;9.00;99.90;;;;;;5051487;28;20029;-47
2023/04/25 06:23:37;;;;;;;9.05;5.70;;;9.30;99.90;;;;;;5051278;28;20036;-49
2023/04/25 06:26:03;;;;;;;13.43;5.85;;;9.80;99.90;;;;;;5051263;28;20029;-47
2023/04/25 06:28:29;;;;;;;12.60;4.65;;;10.40;99.90;;;;;;5051476;28;20423;-49
2023/04/25 06:30:54;;;;;;;8.98;4.95;;;10.50;99.90;;;;;;5051203;28;20028;-49
2023/04/25 06:33:21;;;;;;;8.73;4.93;;;10.40;99.90;;;;;;5051253;28;20473;-47
2023/04/25 06:35:46;;;;;;;11.43;5.70;;;10.50;99.90;;;;;;5051852;28;20031;-48
2023/04/25 06:38:12;;;;;;;16.13;6.18;;;10.70;99.90;;;;;;5051337;28;20478;-46
2023/04/25 06:40:38;;;;;;;12.48;4.55;;;10.30;99.90;;;;;;5051018;28;20025;-46
2023/04/25 06:43:04;;;;;;;7.50;4.13;;;10.00;99.90;;;;;;5051169;28;20092;-46
2023/04/25 06:45:30;;;;;;;14.15;5.13;;;10.10;99.90;;;;;;5051053;28;20399;-46
2023/04/25 06:47:55;;;;;;;12.30;5.68;;;10.40;99.90;;;;;;5051383;28;20151;-46
2023/04/25 06:50:21;;;;;;;17.02;5.70;;;10.20;99.90;;;;;;5051107;28;20388;-43
2023/04/25 06:52:47;;;;;;;11.93;5.07;;;10.30;99.90;;;;;;5051030;28;20031;-46
2023/04/25 06:55:12;;;;;;;8.13;4.68;;;10.10;99.90;;;;;;5049558;28;20025;-47
2023/04/25 06:57:38;;;;;;;11.52;5.15;;;10.30;99.90;;;;;;5051114;28;20025;-46
2023/04/25 07:00:05;;;;;;;8.20;4.68;;;10.60;99.90;;;;;;5051025;28;20127;-46
2023/04/25 07:02:31;;;;;;;11.02;5.10;;;10.80;99.90;;;;;;5051108;28;20079;-46
2023/04/25 07:04:59;;;;;;;12.65;5.68;;;10.80;99.90;;;;;;5054671;28;20499;-45
2023/04/25 07:07:25;;;;;;;10.57;5.82;;;11.00;99.90;;;;;;5053605;28;20017;-46
2023/04/25 07:09:50;;;;;;;11.10;5.10;;;11.00;99.90;;;;;;5054980;28;20051;-45
2023/04/25 07:12:16;;;;;;;11.93;5.57;;;11.10;99.90;;;;;;5055162;28;20075;-46
2023/04/25 07:14:41;;;;;;;8.05;5.60;;;11.10;99.90;;;;;;5054803;28;20036;-45
2023/04/25 07:17:07;;;;;;;11.93;5.80;;;11.10;99.90;;;;;;5054808;28;20411;-45
2023/04/25 07:19:33;;;;;;;11.93;5.40;;;11.00;99.90;;;;;;5054782;28;20401;-47
2023/04/25 07:21:58;;;;;;;12.43;5.47;;;11.30;99.90;;;;;;5055118;28;20029;-47
2023/04/25 07:24:24;;;;;;;14.20;6.47;;;11.60;99.90;;;;;;5054217;28;20083;-48
2023/04/25 07:26:49;;;;;;;14.75;6.72;;;11.70;99.90;;;;;;5054246;28;20029;-45
2023/04/25 07:29:15;;;;;;;13.40;5.15;;;11.80;99.90;;;;;;5054304;28;20063;-47
2023/04/25 07:31:41;;;;;;;13.88;6.07;;;11.90;99.90;;;;;;5054450;28;20036;-47
2023/04/25 07:34:07;;;;;;;13.32;5.35;;;12.00;99.90;;;;;;5054326;28;20025;-51
2023/04/25 07:36:32;;;;;;;10.27;4.82;;;12.10;99.90;;;;;;5054161;28;20021;-48
2023/04/25 07:38:58;;;;;;;15.35;5.40;;;12.00;99.90;;;;;;5054332;28;20025;-48
2023/04/25 07:41:23;;;;;;;11.85;5.43;;;12.20;99.90;;;;;;5046456;28;20485;-45
2023/04/25 07:43:49;;;;;;;8.30;4.30;;;12.30;99.90;;;;;;5046102;28;20033;-47
2023/04/25 07:46:14;;;;;;;8.98;4.03;;;12.70;99.90;;;;;;5053299;28;20093;-49
2023/04/25 07:48:40;;;;;;;13.25;5.63;;;12.80;99.90;;;;;;5053554;28;20428;-48
2023/04/25 07:51:07;;;;;;;11.82;4.53;;;12.60;99.90;;;;;;5053450;28;20396;-49
2023/04/25 07:53:34;;;;;;;9.88;4.40;;;13.00;99.90;;;;;;5052998;28;20032;-44
2023/04/25 07:56:00;;;;;;;7.22;3.83;;;13.30;99.90;;;;;;5053425;28;20024;-55
2023/04/25 07:58:25;;;;;;;10.70;4.65;;;13.10;99.90;;;;;;5052199;28;20537;-51
2023/04/25 08:00:51;;;;;;;11.23;3.60;;;13.40;99.90;;;;;;5053643;28;20367;-46
2023/04/25 08:03:16;;;;;;;7.32;3.25;;;13.70;99.90;;;;;;5052065;28;20035;-48
2023/04/25 08:05:42;;;;;;;10.25;4.05;;;14.20;99.90;;;;;;5053348;28;20155;-49
2023/04/25 08:08:08;;;;;;;10.55;3.72;;;14.40;99.40;;;;;;5052717;28;20048;-50
2023/04/25 08:10:33;;;;;;;10.63;4.03;;;14.30;99.30;;;;;;5053599;28;20099;-48
2023/04/25 08:12:59;;;;;;;6.97;3.95;;;14.60;99.90;;;;;;5053634;28;20025;-48
2023/04/25 08:15:26;;;;;;;12.32;4.38;;;15.60;98.70;;;;;;5052705;28;20029;-47
2023/04/25 08:17:51;;;;;;;5.20;3.50;;;16.50;98.30;;;;;;5053547;28;20056;-47
2023/04/25 08:20:17;;;;;;;8.50;3.78;;;17.60;95.50;;;;;;5053600;28;20511;-49
2023/04/25 08:22:43;;;;;;;11.13;3.20;;;18.70;93.80;;;;;;5053552;28;20017;-48
2023/04/25 08:25:08;;;;;;;6.53;2.97;;;18.90;92.50;;;;;;5053395;28;20439;-51
2023/04/25 08:27:34;;;;;;;6.22;3.40;;;19.00;91.90;;;;;;5049254;28;20040;-50
2023/04/25 08:30:00;;;;;;;8.98;3.38;;;17.70;93.10;;;;;;5053229;28;20100;-50
2023/04/25 08:32:26;;;;;;;5.53;2.80;;;17.10;92.60;;;;;;5051204;28;20404;-51
2023/04/25 08:34:53;;;;;;;12.55;3.28;;;16.60;94.00;;;;;;5041845;28;20021;-53
2023/04/25 08:37:20;;;;;;;7.35;3.47;;;16.60;94.70;;;;;;5047583;28;20507;-49
2023/04/25 08:39:47;;;;;;;3.55;2.60;;;16.80;95.00;;;;;;5033171;28;20030;-52
2023/04/25 08:42:15;;;;;;;9.82;2.63;;;16.40;94.70;;;;;;5046658;28;20051;-51
2023/04/25 08:44:40;;;;;;;8.63;2.35;;;16.10;95.90;;;;;;5053023;28;20032;-49
2023/04/25 08:47:06;;;;;;;6.38;2.35;;;15.60;95.00;;;;;;5052923;28;20037;-50
2023/04/25 08:49:33;;;;;;;5.10;2.15;;;15.30;96.50;;;;;;5051762;28;20036;-51
2023/04/25 08:52:04;;;;;;;6.88;2.67;;;15.40;95.80;;;;;;5052551;28;20044;-47
2023/04/25 08:54:31;;;;;;;8.75;2.20;;;14.70;96.90;;;;;;5052746;28;20025;-51
2023/04/25 08:56:59;;;;;;;3.83;2.13;;;14.70;96.20;;;;;;5052827;28;20028;-50
2023/04/25 08:59:26;;;;;;;5.47;2.60;;;15.20;96.20;;;;;;5033325;28;20021;-53
2023/04/25 09:01:52;;;;;;;6.18;2.05;;;15.70;95.50;;;;;;5030980;28;20106;-51
2023/04/25 09:04:18;;;;;;;4.03;2.47;;;15.30;94.50;;;;;;5030893;28;20057;-51
2023/04/25 09:06:43;;;;;;;5.88;2.20;;;15.40;95.20;;;;;;5028537;28;20652;-50
2023/04/25 09:09:12;;;;;;;6.28;2.63;;;14.60;95.30;;;;;;5042080;28;20101;-49
2023/04/25 09:11:38;;;;;;;5.38;3.17;;;14.00;97.00;;;;;;5052697;28;20488;-49
2023/04/25 09:14:20;;;;;;;14.20;3.80;;;13.90;97.50;;;;;;5052428;28;20040;-47
2023/04/25 09:16:55;;;;;;;8.32;2.55;;;14.00;98.10;;;;;;5052262;28;20397;-47
2023/04/25 09:19:28;;;;;;;7.37;2.43;;;14.30;97.50;;;;;;5052258;28;20040;-49
2023/04/25 09:21:56;;;;;;;6.40;2.15;;;14.30;96.60;;;;;;5052573;28;20255;-49
2023/04/25 09:24:35;;;;;;;9.05;2.28;;;14.40;97.30;;;;;;5052309;28;20108;-53
2023/04/25 09:27:03;;;;;;;4.68;2.45;;;14.30;98.30;;;;;;5051375;28;20485;-48
2023/04/25 09:29:34;;;;;;;10.45;2.45;;;14.10;97.90;;;;;;5052666;28;20033;-53
2023/04/25 09:32:22;;;;;;;13.38;3.13;;;13.80;98.70;;;;;;5052894;28;20104;-52
2023/04/25 09:34:52;;;;;;;7.30;2.70;;;13.60;98.90;;;;;;5052305;28;20033;-52
2023/04/25 09:37:25;;;;;;;5.30;2.30;;;13.00;99.00;;;;;;5052424;28;20033;-52
2023/04/25 09:39:56;;;;;;;4.57;2.50;;;13.00;98.80;;;;;;5052656;28;20412;-50
2023/04/25 09:42:23;;;;;;;6.00;2.55;;;13.20;97.80;;;;;;5052570;28;20025;-50
2023/04/25 09:44:52;;;;;;;4.65;2.55;;;13.50;96.60;;;;;;5051146;28;20025;-50
2023/04/25 09:47:17;;;;;;;4.57;2.47;;;13.80;96.50;;;;;;5052347;28;20033;-50
2023/04/25 09:49:43;;;;;;;4.85;2.58;;;14.00;96.30;;;;;;5052142;28;20326;-48
2023/04/25 09:52:14;;;;;;;4.97;2.90;;;14.10;96.40;;;;;;5052441;28;20025;-51
2023/04/25 09:54:40;;;;;;;5.75;2.83;;;14.00;97.10;;;;;;5052009;28;20051;-52
2023/04/25 09:57:16;;;;;;;5.90;2.95;;;13.70;97.40;;;;;;5052188;28;20025;-54
2023/04/25 09:59:48;;;;;;;4.55;3.30;;;13.40;97.80;;;;;;5050980;28;20021;-53
2023/04/25 10:02:17;;;;;;;5.32;2.85;;;13.10;98.30;;;;;;5052271;28;20373;-52
2023/04/25 10:04:47;;;;;;;5.68;3.45;;;13.00;99.00;;;;;;5053538;28;20464;-54
2023/04/25 10:07:13;;;;;;;3.65;3.25;;;12.90;99.00;;;;;;5054000;28;20075;-54
2023/04/25 10:09:40;;;;;;;6.72;3.67;;;12.90;99.60;;;;;;5051777;28;20435;-53
2023/04/25 10:12:07;;;;;;;8.70;6.10;;;12.90;98.80;;;;;;5052242;28;20025;-53
2023/04/25 10:14:34;;;;;;;23.08;12.88;;;12.70;98.80;;;;;;5051515;28;20548;-47
2023/04/25 10:17:00;;;;;;;4.53;2.83;;;12.60;99.00;;;;;;5051280;28;20400;-49
2023/04/25 10:19:27;;;;;;;4.43;3.67;;;12.10;98.40;;;;;;5049399;28;20021;-53
2023/04/25 10:22:02;;;;;;;10.38;4.30;;;12.10;99.90;;;;;;5046106;28;20371;-50
2023/04/25 10:24:28;;;;;;;6.63;3.92;;;12.20;99.90;;;;;;5052971;28;20029;-51
2023/04/25 10:26:54;;;;;;;5.05;3.35;;;12.40;99.90;;;;;;5051339;28;20469;-55
2023/04/25 10:29:26;;;;;;;14.40;4.18;;;12.60;99.90;;;;;;5043596;28;20086;-51
2023/04/25 10:31:52;;;;;;;6.60;3.42;;;12.80;99.70;;;;;;5050574;28;20025;-48
2023/04/25 10:34:18;;;;;;;5.13;3.47;;;12.70;99.50;;;;;;5051661;28;20032;-52
2023/04/25 10:36:51;;;;;;;8.93;3.92;;;12.60;99.70;;;;;;5051337;28;20032;-55
2023/04/25 10:39:27;;;;;;;9.98;3.83;;;12.60;99.90;;;;;;5058449;28;20439;-49
2023/04/25 10:42:02;;;;;;;11.93;4.72;;;12.70;99.90;;;;;;5042625;28;20063;-49
2023/04/25 10:44:29;;;;;;;7.37;4.10;;;12.70;99.90;;;;;;5048275;28;20029;-49
2023/04/25 10:46:59;;;;;;;6.82;3.90;;;12.50;99.90;;;;;;5060877;28;20037;-52
2023/04/25 10:49:40;;;;;;;7.50;4.47;;;12.50;99.90;;;;;;5057270;28;20039;-48
2023/04/25 10:52:15;;;;;;;8.10;5.18;;;12.70;99.90;;;;;;5057910;28;20039;-51
2023/04/25 10:54:57;;;;;;;9.40;4.32;;;12.90;99.90;;;;;;5045760;28;20064;-52
2023/04/25 10:57:48;;;;;;;7.45;4.50;;;13.10;99.90;;;;;;5046104;28;20029;-48
2023/04/25 11:00:16;;;;;;;5.45;3.70;;;13.10;99.90;;;;;;5055708;28;20017;-53
2023/04/25 11:02:42;;;;;;;7.22;4.80;;;13.30;99.90;;;;;;5055228;28;20021;-52
2023/04/25 11:05:09;;;;;;;9.93;4.55;;;13.40;99.50;;;;;;5057108;28;20025;-49
2023/04/25 11:07:56;;;;;;;7.65;4.97;;;12.80;99.20;;;;;;5057380;28;20463;-54
2023/04/25 11:10:25;;;;;;;33.13;20.77;;;12.70;99.90;;;;;;5055367;28;20029;-53
2023/04/25 11:12:51;;;;;;;13.05;8.93;;;12.50;99.90;;;;;;5056789;28;20025;-53
2023/04/25 11:15:16;;;;;;;15.25;4.90;;;12.70;99.90;;;;;;5055134;28;20558;-54
2023/04/25 11:17:43;;;;;;;15.75;4.30;;;12.80;99.80;;;;;;5059000;28;20028;-54
2023/04/25 11:20:11;;;;;;;6.93;3.83;;;12.80;98.90;;;;;;5055829;28;20033;-50
2023/04/25 11:22:38;;;;;;;10.40;4.20;;;12.80;98.80;;;;;;5057276;28;20070;-50
2023/04/25 11:25:09;;;;;;;7.03;3.90;;;12.60;99.40;;;;;;5057883;28;20025;-54
2023/04/25 11:27:50;;;;;;;8.00;4.07;;;12.40;99.80;;;;;;5057884;28;20472;-50
2023/04/25 11:30:16;;;;;;;5.07;4.05;;;12.40;99.60;;;;;;5057476;28;20032;-50
2023/04/25 11:32:42;;;;;;;5.10;4.22;;;12.60;99.90;;;;;;5056619;28;20496;-50
2023/04/25 11:35:09;;;;;;;14.80;4.18;;;12.90;99.90;;;;;;5056959;28;20481;-50
2023/04/25 11:37:34;;;;;;;7.65;4.30;;;13.10;98.90;;;;;;5057359;28;20029;-54
2023/04/25 11:40:00;;;;;;;12.70;5.03;;;13.00;99.00;;;;;;5057166;28;20032;-50
2023/04/25 11:42:26;;;;;;;7.65;4.22;;;12.90;99.30;;;;;;5056034;28;20021;-54
2023/04/25 11:44:52;;;;;;;12.45;4.50;;;13.00;98.90;;;;;;5056914;28;20074;-52
2023/04/25 11:47:17;;;;;;;3.67;3.13;;;13.00;98.70;;;;;;5095586;22;20048;-48
2023/04/25 11:49:43;;;;;;;8.10;4.50;;;12.90;98.70;;;;;;5074887;28;20024;-50
2023/04/25 11:52:08;;;;;;;8.32;3.83;;;12.70;99.60;;;;;;5074168;28;20063;-49
2023/04/25 11:54:37;;;;;;;9.32;4.25;;;12.80;99.20;;;;;;5056185;28;20078;-44
2023/04/25 11:57:04;;;;;;;10.13;4.07;;;12.90;98.50;;;;;;5056424;28;20024;-45
2023/04/25 11:59:29;;;;;;;8.27;4.38;;;12.70;98.30;;;;;;5074063;28;20024;-43
2023/04/25 12:01:57;;;;;;;8.45;3.95;;;12.70;98.70;;;;;;5073905;28;20027;-45
2023/04/25 12:04:24;;;;;;;11.43;4.00;;;12.70;99.20;;;;;;5074010;28;20528;-45
2023/04/25 12:06:52;;;;;;;7.93;3.97;;;12.60;99.20;;;;;;5056312;28;20028;-45
2023/04/25 12:09:21;;;;;;;29.35;16.17;;;12.70;99.00;;;;;;5074008;28;20438;-49
2023/04/25 12:11:58;;;;;;;13.93;8.30;;;12.70;98.50;;;;;;5074017;28;20070;-45
2023/04/25 12:14:26;;;;;;;10.10;4.90;;;12.70;98.30;;;;;;5074124;28;20020;-45
2023/04/25 12:16:52;;;;;;;11.20;4.93;;;12.70;98.30;;;;;;5073387;28;20043;-46
2023/04/25 12:19:20;;;;;;;7.13;3.78;;;12.60;98.30;;;;;;5056041;28;20454;-46
2023/04/25 12:21:45;;;;;;;13.52;4.57;;;12.60;98.70;;;;;;5073996;28;20044;-47
2023/04/25 12:24:17;;;;;;;11.10;3.63;;;12.60;98.80;;;;;;5056403;28;20043;-47
2023/04/25 12:27:03;;;;;;;8.52;4.13;;;12.50;98.30;;;;;;5073928;28;20416;-45
2023/04/25 12:29:31;;;;;;;6.72;3.63;;;12.50;98.80;;;;;;5073349;28;20025;-45
2023/04/25 12:31:57;;;;;;;9.73;3.53;;;12.50;98.80;;;;;;5073696;28;20024;-47
2023/04/25 12:34:23;;;;;;;7.57;3.38;;;12.60;98.70;;;;;;5073859;28;20514;-50
2023/04/25 12:36:50;;;;;;;11.30;3.20;;;12.60;98.40;;;;;;5073052;28;20345;-44
2023/04/25 12:39:17;;;;;;;9.85;3.60;;;12.70;98.10;;;;;;5088908;28;20074;-43
2023/04/25 12:41:43;;;;;;;4.20;2.85;;;12.80;98.70;;;;;;5093951;28;20391;-41
2023/04/25 12:44:09;;;;;;;7.20;2.53;;;12.90;97.60;;;;;;5094972;28;20028;-46
2023/04/25 12:46:35;;;;;;;7.50;3.40;;;13.10;97.50;;;;;;5094257;28;20526;-44
2023/04/25 12:49:03;;;;;;;9.35;2.58;;;13.00;97.10;;;;;;5086740;28;20025;-50